Time;durP1;ratioP1;P1;durP2;ratioP2;P2;SDS_P1;SDS_P2;PMS_P1;PMS_P2;Temp;Humidity;BMP_temperature;BMP_pressure;BME280_temperature;BME280_humidity;BME280_pressure;Samples;Min_cycle;Max_cycle;Signal;HPM_P1;HPM_P2
2022/01/11 00:04:16;;;;;;;26.88;14.93;;;;;;;2.68;100.00;99669.22;10312367;28;20144;-82
2022/01/11 00:09:23;;;;;;;21.17;12.52;;;;;;;2.71;100.00;99669.91;10328238;28;20138;-82
2022/01/11 00:14:28;;;;;;;20.77;11.60;;;;;;;2.70;100.00;99673.50;10302251;28;20090;-82
2022/01/11 00:19:33;;;;;;;21.70;12.35;;;;;;;2.73;100.00;99678.69;10337089;28;20324;-82
2022/01/11 00:24:36;;;;;;;22.45;12.43;;;;;;;2.72;100.00;99668.97;10378198;28;20141;-84
2022/01/11 00:29:44;;;;;;;26.88;13.93;;;;;;;2.73;100.00;99673.34;10375306;28;20153;-81
2022/01/11 00:34:55;;;;;;;34.58;17.30;;;;;;;2.69;100.00;99671.78;10386033;28;20049;-85
2022/01/11 00:40:00;;;;;;;31.55;16.50;;;;;;;2.69;100.00;99677.09;10393732;28;20137;-87
2022/01/11 00:45:07;;;;;;;32.05;17.10;;;;;;;2.69;100.00;99686.91;10368809;28;20137;-83
2022/01/11 00:50:10;;;;;;;40.30;19.95;;;;;;;2.69;100.00;99695.75;10334597;28;20598;-84
2022/01/11 00:55:15;;;;;;;43.75;22.38;;;;;;;2.67;100.00;99686.97;10351500;28;20038;-84
2022/01/11 01:00:19;;;;;;;43.20;22.67;;;;;;;2.67;100.00;99696.75;10357617;28;20775;-85
2022/01/11 01:05:23;;;;;;;49.75;23.80;;;;;;;2.66;100.00;99698.56;10350118;28;20045;-86
2022/01/11 01:10:29;;;;;;;66.65;29.10;;;;;;;2.67;100.00;99704.75;10357380;28;20521;-83
2022/01/11 01:15:35;;;;;;;67.97;30.08;;;;;;;2.67;100.00;99697.63;10361059;28;20046;-82
2022/01/11 01:20:48;;;;;;;60.05;27.67;;;;;;;2.67;100.00;99705.59;10342093;28;20061;-86
2022/01/11 01:25:51;;;;;;;66.68;29.60;;;;;;;2.67;100.00;99710.06;10354801;28;20057;-83
2022/01/11 01:31:00;;;;;;;64.70;28.60;;;;;;;2.65;100.00;99711.94;10337822;28;20364;-88
2022/01/11 01:36:11;;;;;;;62.28;27.90;;;;;;;2.66;100.00;99708.34;10374281;23;20046;-51
2022/01/11 01:41:17;;;;;;;62.37;28.67;;;;;;;2.67;100.00;99712.72;10374352;28;20446;-54
2022/01/11 01:46:23;;;;;;;57.33;26.90;;;;;;;2.63;100.00;99709.38;10365870;28;20136;-54
2022/01/11 01:51:27;;;;;;;63.88;27.02;;;;;;;2.59;100.00;99719.28;10381947;28;20632;-52
2022/01/11 01:56:30;;;;;;;66.95;28.30;;;;;;;2.61;100.00;99720.06;10373782;28;20149;-52
2022/01/11 02:01:43;;;;;;;63.50;28.05;;;;;;;2.62;100.00;99713.81;10348370;28;20050;-55
2022/01/11 02:06:48;;;;;;;58.30;24.33;;;;;;;2.60;100.00;99725.50;10352355;28;20521;-53
2022/01/11 02:11:51;;;;;;;50.05;24.15;;;;;;;2.60;100.00;99722.81;10369600;28;20045;-57
2022/01/11 02:17:00;;;;;;;45.30;21.30;;;;;;;2.56;100.00;99729.22;10354741;28;20137;-53
2022/01/11 02:22:06;;;;;;;40.47;20.15;;;;;;;2.49;100.00;99722.50;10352789;28;20057;-57
2022/01/11 02:27:09;;;;;;;22.92;13.43;;;;;;;2.35;100.00;99726.72;10339199;28;20068;-56
2022/01/11 02:32:16;;;;;;;29.23;15.15;;;;;;;2.26;100.00;99713.91;10343336;28;20046;-52
2022/01/11 02:37:22;;;;;;;28.45;15.57;;;;;;;2.15;100.00;99723.28;10342376;28;20053;-55
2022/01/11 02:42:29;;;;;;;27.52;14.73;;;;;;;2.09;100.00;99731.53;10359194;28;20046;-52
2022/01/11 02:47:32;;;;;;;27.15;14.18;;;;;;;2.06;100.00;99736.13;10360712;28;20046;-51
2022/01/11 02:52:37;;;;;;;31.65;14.60;;;;;;;2.00;100.00;99738.16;10387703;28;20038;-51
2022/01/11 02:57:41;;;;;;;27.13;13.68;;;;;;;1.96;100.00;99738.38;10341791;28;20391;-52
2022/01/11 03:03:13;;;;;;;25.63;13.05;;;;;;;1.91;100.00;99743.06;10378191;28;20060;-54
2022/01/11 03:08:20;;;;;;;25.27;13.32;;;;;;;1.91;100.00;99737.75;10358035;28;20053;-53
2022/01/11 03:13:23;;;;;;;27.10;13.88;;;;;;;1.90;100.00;99739.53;10361209;28;20502;-51
2022/01/11 03:18:27;;;;;;;26.65;13.77;;;;;;;1.92;100.00;99740.31;10343529;28;20073;-51
2022/01/11 03:23:31;;;;;;;32.13;14.80;;;;;;;1.94;100.00;99748.25;10355777;28;20037;-51
2022/01/11 03:28:35;;;;;;;29.27;14.98;;;;;;;1.96;100.00;99749.88;10347568;28;20132;-54
2022/01/11 03:33:39;;;;;;;26.95;13.68;;;;;;;1.97;100.00;99764.03;10352308;28;20050;-55
2022/01/11 03:38:43;;;;;;;29.33;13.70;;;;;;;1.98;100.00;99760.44;10357478;28;20127;-54
2022/01/11 03:43:48;;;;;;;29.58;12.88;;;;;;;1.98;100.00;99765.75;10353150;28;20060;-56
2022/01/11 03:48:57;;;;;;;23.55;12.23;;;;;;;1.98;100.00;99776.38;10348998;28;20158;-53
2022/01/11 03:54:10;;;;;;;19.35;10.55;;;;;;;2.00;100.00;99779.84;10351888;28;20093;-51
2022/01/11 03:59:23;;;;;;;20.17;11.20;;;;;;;2.02;100.00;99777.09;10346759;28;20460;-54
2022/01/11 04:04:26;;;;;;;19.50;10.93;;;;;;;1.96;100.00;99783.56;10357305;28;20049;-51
2022/01/11 04:09:31;;;;;;;27.58;14.18;;;;;;;1.94;100.00;99783.63;10377734;28;20038;-54
2022/01/11 04:14:34;;;;;;;29.50;13.98;;;;;;;1.95;100.00;99792.47;10353869;28;20050;-59
2022/01/11 04:19:38;;;;;;;29.30;14.50;;;;;;;1.95;100.00;99797.78;10364666;28;20050;-56
2022/01/11 04:24:43;;;;;;;33.22;15.85;;;;;;;1.99;100.00;99794.94;10374205;28;20045;-57
2022/01/11 04:29:47;;;;;;;39.75;18.25;;;;;;;1.97;100.00;99801.22;10358874;28;20137;-58
2022/01/11 04:34:53;;;;;;;55.58;23.27;;;;;;;1.97;100.00;99807.44;10347079;28;20046;-58
2022/01/11 04:39:58;;;;;;;72.20;25.55;;;;;;;1.94;100.00;99815.53;10324258;28;20074;-57
2022/01/11 04:45:05;;;;;;;86.68;28.17;;;;;;;1.91;100.00;99828.13;10308653;28;20142;-58
2022/01/11 04:50:10;;;;;;;143.52;32.53;;;;;;;1.87;100.00;99832.72;10308372;28;20053;-55
2022/01/11 04:55:15;;;;;;;143.65;33.75;;;;;;;1.89;100.00;99835.28;10319786;28;20066;-55
2022/01/11 05:00:24;;;;;;;133.32;33.78;;;;;;;1.88;100.00;99838.88;10322024;28;20835;-56
2022/01/11 05:05:29;;;;;;;128.15;34.28;;;;;;;1.92;100.00;99846.63;10304856;28;20074;-57
2022/01/11 05:10:42;;;;;;;144.82;36.22;;;;;;;1.93;100.00;99847.50;10327016;28;20130;-57
2022/01/11 05:15:48;;;;;;;523.50;45.08;;;;;;;1.88;100.00;99841.53;10315669;28;20400;-54
2022/01/11 05:20:52;;;;;;;303.15;40.63;;;;;;;1.89;100.00;99846.78;10316352;28;20529;-55
2022/01/11 05:25:57;;;;;;;440.63;42.15;;;;;;;1.84;100.00;99851.44;10316827;28;20057;-55
2022/01/11 05:31:00;;;;;;;257.67;39.70;;;;;;;1.81;100.00;99848.94;10330627;28;20466;-56
2022/01/11 05:36:05;;;;;;;135.95;34.17;;;;;;;1.77;100.00;99845.56;10341239;28;20399;-55
2022/01/11 05:41:12;;;;;;;215.07;36.70;;;;;;;1.74;100.00;99847.50;10347945;28;20050;-58
2022/01/11 05:46:16;;;;;;;494.30;44.22;;;;;;;1.72;100.00;99854.66;10375990;28;20081;-59
2022/01/11 05:51:20;;;;;;;320.00;39.67;;;;;;;1.71;100.00;99856.44;10348378;28;20044;-56
2022/01/11 05:56:25;;;;;;;196.55;36.17;;;;;;;1.65;100.00;99862.91;10345652;28;20053;-55
2022/01/11 06:01:30;;;;;;;145.52;34.72;;;;;;;1.65;100.00;99864.72;10360980;28;20049;-53
2022/01/11 06:06:33;;;;;;;147.23;33.13;;;;;;;1.61;100.00;99869.31;10373265;28;20124;-53
2022/01/11 06:11:38;;;;;;;98.75;31.15;;;;;;;1.65;100.00;99872.69;10354156;28;20049;-57
2022/01/11 06:16:42;;;;;;;78.03;26.55;;;;;;;1.65;100.00;99878.00;10368155;28;20050;-54
2022/01/11 06:21:45;;;;;;;119.80;30.13;;;;;;;1.64;100.00;99878.91;10351240;28;20145;-52
2022/01/11 06:26:50;;;;;;;191.60;35.13;;;;;;;1.65;100.00;99889.47;10359179;28;20045;-57
2022/01/11 06:31:53;;;;;;;235.20;37.47;;;;;;;1.63;100.00;99907.28;10361409;28;20061;-56
2022/01/11 06:36:59;;;;;;;512.78;43.45;;;;;;;1.62;100.00;99910.00;10351811;28;20054;-54
2022/01/11 06:42:08;;;;;;;327.15;41.17;;;;;;;1.62;100.00;99917.97;10340383;28;20043;-52
2022/01/11 06:47:12;;;;;;;168.93;39.63;;;;;;;1.64;100.00;99932.06;10344142;28;20125;-55
2022/01/11 06:52:15;;;;;;;136.75;37.88;;;;;;;1.62;100.00;99933.91;10334451;28;20149;-56
2022/01/11 06:57:27;;;;;;;61.17;27.88;;;;;;;1.56;100.00;99928.88;10343665;28;20054;-57
2022/01/11 07:02:30;;;;;;;34.13;19.52;;;;;;;1.45;100.00;99938.19;10348469;28;20140;-57
2022/01/11 07:07:53;;;;;;;42.60;22.88;;;;;;;1.47;100.00;99946.91;10357625;28;20133;-56
2022/01/11 07:12:59;;;;;;;57.22;25.98;;;;;;;1.49;100.00;99942.41;10345524;28;20418;-53
2022/01/11 07:18:06;;;;;;;70.88;28.77;;;;;;;1.47;100.00;99952.22;10345549;28;20128;-54
2022/01/11 07:23:11;;;;;;;94.28;33.38;;;;;;;1.49;100.00;99949.53;10344028;28;20109;-59
2022/01/11 07:28:16;;;;;;;155.40;37.55;;;;;;;1.49;100.00;99945.06;10348387;28;20054;-52
2022/01/11 07:33:22;;;;;;;158.55;39.88;;;;;;;1.49;100.00;99954.84;10356277;28;20050;-56
2022/01/11 07:38:27;;;;;;;151.20;39.03;;;;;;;1.50;100.00;99960.06;10361145;28;20053;-58
2022/01/11 07:43:32;;;;;;;122.32;38.05;;;;;;;1.51;100.00;99964.47;10359938;28;20056;-57
2022/01/11 07:48:42;;;;;;;115.28;37.00;;;;;;;1.53;100.00;99973.25;10344970;28;20066;-52
2022/01/11 07:53:46;;;;;;;103.50;35.55;;;;;;;1.53;100.00;99967.91;10364065;28;20052;-53
2022/01/11 07:58:55;;;;;;;108.35;36.05;;;;;;;1.59;100.00;99976.56;10356637;28;20050;-52
2022/01/11 08:04:03;;;;;;;107.32;33.75;;;;;;;1.51;100.00;99982.22;10360520;28;20557;-52
2022/01/11 08:09:12;;;;;;;116.72;35.22;;;;;;;1.49;100.00;99987.56;10357308;28;20168;-55
2022/01/11 08:14:17;;;;;;;99.20;34.03;;;;;;;1.50;100.00;99986.63;10356513;28;20053;-56
2022/01/11 08:19:24;;;;;;;121.40;35.38;;;;;;;1.53;100.00;99990.94;10367475;28;20282;-62
2022/01/11 08:24:29;;;;;;;219.82;37.72;;;;;;;1.54;100.00;100004.19;10344543;28;20064;-54
2022/01/11 08:29:33;;;;;;;342.95;42.88;;;;;;;1.53;100.00;100007.78;10342584;28;20050;-54
2022/01/11 08:34:37;;;;;;;276.35;43.00;;;;;;;1.56;100.00;100005.91;10349532;28;20141;-54
2022/01/11 08:39:42;;;;;;;238.00;45.72;;;;;;;1.60;100.00;100010.16;10358258;28;20066;-57
2022/01/11 08:44:49;;;;;;;319.02;43.85;;;;;;;1.65;100.00;100021.47;10363951;28;20164;-55
2022/01/11 08:49:59;;;;;;;364.02;43.42;;;;;;;1.68;100.00;100024.84;10363271;28;20068;-58
2022/01/11 08:55:11;;;;;;;200.77;38.13;;;;;;;1.71;100.00;100026.50;10357702;28;20502;-56
2022/01/11 09:00:18;;;;;;;148.02;33.30;;;;;;;1.73;100.00;100019.34;10359468;28;20080;-55
2022/01/11 09:05:30;;;;;;;163.23;31.90;;;;;;;1.78;100.00;100029.75;10362276;28;20572;-55
2022/01/11 09:10:38;;;;;;;141.00;33.60;;;;;;;1.84;100.00;100024.19;10360767;28;20077;-54
2022/01/11 09:15:43;;;;;;;184.68;34.35;;;;;;;1.84;100.00;100019.72;10383241;28;20080;-52
2022/01/11 09:20:46;;;;;;;211.70;33.92;;;;;;;1.86;100.00;100038.28;10360716;28;20540;-54
2022/01/11 09:25:51;;;;;;;166.55;32.53;;;;;;;1.94;100.00;100036.16;10360793;28;20132;-59
2022/01/11 09:30:56;;;;;;;93.75;27.92;;;;;;;2.00;100.00;100043.84;10351421;28;20042;-58
2022/01/11 09:35:59;;;;;;;87.07;26.27;;;;;;;2.03;100.00;100045.53;10360227;28;20532;-62
2022/01/11 09:41:03;;;;;;;82.93;26.52;;;;;;;2.02;100.00;100045.59;10358394;28;20041;-57
2022/01/11 09:46:13;;;;;;;86.60;25.63;;;;;;;2.10;100.00;100036.34;10351320;28;20077;-58
2022/01/11 09:51:18;;;;;;;67.15;24.25;;;;;;;2.12;100.00;100039.81;10344905;28;20053;-59
2022/01/11 09:56:21;;;;;;;58.65;23.80;;;;;;;2.18;100.00;100032.47;10356024;28;20062;-57
2022/01/11 10:01:26;;;;;;;66.35;24.90;;;;;;;2.22;100.00;100040.28;10348764;28;20545;-61
2022/01/11 10:06:54;;;;;;;61.63;24.55;;;;;;;2.23;100.00;100030.50;10380662;28;20053;-60
2022/01/11 10:12:02;;;;;;;51.05;22.05;;;;;;;2.29;100.00;100035.56;10368691;28;20100;-56
2022/01/11 10:17:10;;;;;;;47.53;21.25;;;;;;;2.34;100.00;100038.84;10386192;28;20045;-59
2022/01/11 10:22:17;;;;;;;49.55;21.83;;;;;;;2.39;100.00;100039.53;10357592;28;20045;-63
2022/01/11 10:27:25;;;;;;;38.67;19.73;;;;;;;2.44;100.00;100041.97;10369455;28;20141;-58
2022/01/11 10:32:34;;;;;;;44.70;21.63;;;;;;;2.44;100.00;100045.47;10356508;28;20073;-58
2022/01/11 10:37:51;;;;;;;40.72;19.70;;;;;;;2.50;100.00;100039.03;10353559;28;20149;-57
2022/01/11 10:42:57;;;;;;;35.65;18.50;;;;;;;2.59;100.00;100048.38;10346413;28;20038;-57
2022/01/11 10:48:05;;;;;;;31.90;17.92;;;;;;;2.63;100.00;100034.00;10330437;28;20073;-55
2022/01/11 10:53:13;;;;;;;35.78;18.75;;;;;;;2.68;100.00;100031.13;10339845;28;20070;-52
2022/01/11 10:58:17;;;;;;;29.30;16.27;;;;;;;2.69;100.00;100039.03;10370333;28;20050;-58
2022/01/11 11:03:24;;;;;;;19.20;11.50;;;;;;;2.73;100.00;100030.00;10341533;28;20402;-58
2022/01/11 11:08:38;;;;;;;21.02;12.70;;;;;;;2.83;100.00;100029.56;10354137;28;20585;-55
2022/01/11 11:13:51;;;;;;;17.90;10.65;;;;;;;2.93;100.00;100023.72;10346531;28;20050;-61
2022/01/11 11:18:57;;;;;;;15.80;10.68;;;;;;;3.05;100.00;100024.09;10351046;28;20495;-58
2022/01/11 11:24:11;;;;;;;16.73;10.88;;;;;;;3.18;100.00;100024.34;10373063;28;20501;-57
2022/01/11 11:29:15;;;;;;;14.63;9.95;;;;;;;3.29;100.00;100024.69;10367989;28;20054;-55
2022/01/11 11:34:40;;;;;;;14.90;10.80;;;;;;;3.36;100.00;100015.44;10357361;28;20100;-60
2022/01/11 11:39:45;;;;;;;15.18;10.77;;;;;;;3.36;100.00;100012.75;10357878;28;20141;-56
2022/01/11 11:44:48;;;;;;;11.90;8.75;;;;;;;3.38;100.00;100007.38;10370552;28;20392;-57
2022/01/11 11:49:54;;;;;;;12.18;8.82;;;;;;;3.46;100.00;99999.84;10372158;28;20128;-59
2022/01/11 11:54:59;;;;;;;11.60;8.68;;;;;;;3.49;100.00;99999.72;10363272;28;20152;-60
2022/01/11 12:00:06;;;;;;;9.95;7.13;;;;;;;3.56;100.00;99992.28;10368115;28;20093;-59
2022/01/11 12:05:38;;;;;;;10.40;8.05;;;;;;;3.59;100.00;99993.91;10370779;28;20042;-60
2022/01/11 12:10:53;;;;;;;10.73;8.00;;;;;;;3.62;100.00;99985.78;10367127;28;20045;-58
2022/01/11 12:15:56;;;;;;;20.15;14.60;;;;;;;3.64;100.00;99984.75;10350946;28;20080;-60
2022/01/11 12:21:01;;;;;;;10.02;6.97;;;;;;;3.58;100.00;99987.72;10358710;28;20437;-61
2022/01/11 12:26:14;;;;;;;8.40;6.60;;;;;;;3.61;100.00;99984.03;10364471;28;20088;-59
2022/01/11 12:31:28;;;;;;;10.48;7.75;;;;;;;3.65;100.00;99985.59;10378099;28;20088;-59
2022/01/11 12:36:52;;;;;;;11.63;8.48;;;;;;;3.66;100.00;99982.88;10357022;28;20057;-60
2022/01/11 12:41:57;;;;;;;9.15;6.45;;;;;;;3.68;100.00;99974.78;10482255;23;20499;-58
2022/01/11 12:47:02;;;;;;;9.85;6.85;;;;;;;3.66;100.00;99974.00;10517794;28;20048;-62
2022/01/11 12:52:10;;;;;;;9.18;6.43;;;;;;;3.71;100.00;99979.97;10515462;28;20068;-64
2022/01/11 12:57:15;;;;;;;8.27;6.20;;;;;;;3.73;100.00;99978.09;10517332;28;20079;-61
2022/01/11 13:02:22;;;;;;;9.15;6.43;;;;;;;3.66;100.00;99971.31;10515355;28;20119;-56
2022/01/11 13:07:29;;;;;;;12.98;8.05;;;;;;;3.60;100.00;99977.84;10519305;28;20515;-60
2022/01/11 13:12:35;;;;;;;12.60;8.25;;;;;;;3.55;100.00;99979.88;10515050;28;20043;-62
2022/01/11 13:17:58;;;;;;;14.43;9.13;;;;;;;3.43;100.00;99989.34;10518985;28;20040;-60
2022/01/11 13:23:27;;;;;;;16.30;9.60;;;;;;;3.44;100.00;99992.88;10517516;28;20056;-61
2022/01/11 13:28:37;;;;;;;16.15;9.38;;;;;;;3.41;100.00;99987.72;10517233;28;20437;-61
2022/01/11 13:33:44;;;;;;;13.48;8.35;;;;;;;3.39;100.00;99995.78;10526879;28;20131;-59
2022/01/11 13:38:52;;;;;;;16.10;9.23;;;;;;;3.34;100.00;99992.47;10524161;28;20590;-62
2022/01/11 13:43:58;;;;;;;16.60;9.73;;;;;;;3.31;100.00;99990.84;10524979;28;20040;-59
2022/01/11 13:49:01;;;;;;;20.67;11.52;;;;;;;3.22;100.00;99993.97;10518776;28;20062;-61
2022/01/11 13:54:08;;;;;;;23.95;13.57;;;;;;;3.15;100.00;100008.50;10522518;28;20119;-60
2022/01/11 13:59:12;;;;;;;27.48;14.68;;;;;;;3.08;100.00;100006.16;10506045;28;20087;-56
2022/01/11 14:04:17;;;;;;;30.48;16.38;;;;;;;3.02;100.00;100009.09;10522806;28;20123;-59
2022/01/11 14:09:34;;;;;;;35.15;17.45;;;;;;;3.00;100.00;100005.63;10505563;28;20106;-58
2022/01/11 14:14:38;;;;;;;33.22;18.25;;;;;;;2.92;100.00;99994.50;10522914;28;20035;-58
2022/01/11 14:19:48;;;;;;;36.85;19.08;;;;;;;2.86;100.00;100008.97;10518818;28;20119;-58
2022/01/11 14:24:56;;;;;;;36.13;19.20;;;;;;;2.84;100.00;100009.97;10526443;28;20042;-58
2022/01/11 14:30:02;;;;;;;38.95;20.55;;;;;;;2.80;100.00;100008.38;10498348;28;20087;-60
2022/01/11 14:35:08;;;;;;;38.22;20.33;;;;;;;2.70;100.00;100014.16;10519483;28;20044;-61
2022/01/11 14:40:22;;;;;;;36.88;19.85;;;;;;;2.64;100.00;100014.44;10517929;28;20476;-59
2022/01/11 14:45:28;;;;;;;36.85;19.85;;;;;;;2.59;100.00;100013.78;10524844;28;20073;-59
2022/01/11 14:50:33;;;;;;;38.58;21.30;;;;;;;2.55;100.00;100004.22;10518591;28;20499;-62
2022/01/11 14:55:48;;;;;;;40.97;21.77;;;;;;;2.49;100.00;100016.00;10515080;28;20398;-61
2022/01/11 15:00:54;;;;;;;41.88;23.27;;;;;;;2.44;100.00;100015.38;10519292;28;20040;-61
2022/01/11 15:06:14;;;;;;;41.22;23.65;;;;;;;2.39;100.00;100020.91;10516774;28;20463;-60
2022/01/11 15:11:20;;;;;;;45.47;24.25;;;;;;;2.31;100.00;100018.59;10513578;28;20044;-59
2022/01/11 15:16:26;;;;;;;43.50;23.58;;;;;;;2.28;100.00;100021.38;10516899;28;20055;-60
2022/01/11 15:21:31;;;;;;;45.67;23.13;;;;;;;2.18;100.00;100011.19;10519043;28;20046;-67
2022/01/11 15:26:38;;;;;;;44.40;22.95;;;;;;;2.14;100.00;100021.13;10519778;28;20115;-61
2022/01/11 15:31:42;;;;;;;44.78;24.10;;;;;;;2.08;100.00;100018.75;10520726;28;20474;-61
2022/01/11 15:36:45;;;;;;;45.10;23.60;;;;;;;2.04;100.00;100036.63;10518612;28;20032;-62
2022/01/11 15:41:52;;;;;;;47.10;24.67;;;;;;;2.05;100.00;100041.03;10497537;28;20102;-61
2022/01/11 15:46:55;;;;;;;53.33;27.00;;;;;;;2.01;100.00;100047.38;10520143;28;20039;-60
2022/01/11 15:51:58;;;;;;;54.83;26.73;;;;;;;1.98;100.00;100053.72;10511841;28;20060;-60
2022/01/11 15:57:04;;;;;;;54.13;26.05;;;;;;;1.91;100.00;100057.53;10498764;28;20485;-61
2022/01/11 16:02:07;;;;;;;62.75;28.65;;;;;;;1.90;100.00;100054.97;10503874;28;20056;-59
2022/01/11 16:07:11;;;;;;;61.33;27.98;;;;;;;1.90;100.00;100049.66;10515346;28;20153;-58
2022/01/11 16:12:15;;;;;;;61.40;29.80;;;;;;;1.87;100.00;100052.44;10510676;28;20076;-60
2022/01/11 16:17:18;;;;;;;56.63;28.73;;;;;;;1.87;100.00;100055.09;10512042;28;20047;-60
2022/01/11 16:22:21;;;;;;;67.78;30.88;;;;;;;1.88;100.00;100064.78;10510308;28;20115;-59
2022/01/11 16:27:27;;;;;;;58.35;29.63;;;;;;;1.89;100.00;100059.41;10501513;28;20408;-60
2022/01/11 16:32:30;;;;;;;61.50;29.40;;;;;;;1.89;100.00;100070.03;10501551;28;20098;-61
2022/01/11 16:37:33;;;;;;;62.28;29.48;;;;;;;1.87;100.00;100073.69;10507144;28;20040;-60
2022/01/11 16:42:41;;;;;;;58.42;30.30;;;;;;;1.80;100.00;100070.44;10453362;28;20132;-60
2022/01/11 16:47:45;;;;;;;61.45;30.33;;;;;;;1.78;100.00;100062.53;10474167;28;20051;-60
2022/01/11 16:52:50;;;;;;;58.15;30.33;;;;;;;1.80;100.00;100067.78;10476659;28;20423;-61
2022/01/11 16:57:55;;;;;;;54.55;29.13;;;;;;;1.76;100.00;100075.00;10463502;28;20064;-61
2022/01/11 17:02:59;;;;;;;58.15;28.95;;;;;;;1.73;100.00;100071.63;10479916;28;20132;-58
2022/01/11 17:08:02;;;;;;;54.75;28.17;;;;;;;1.68;100.00;100082.44;10484639;28;20041;-56
2022/01/11 17:13:06;;;;;;;52.65;28.17;;;;;;;1.62;100.00;100086.22;10466767;28;20511;-59
2022/01/11 17:18:10;;;;;;;59.22;28.45;;;;;;;1.59;100.00;100088.16;10441436;28;20076;-63
2022/01/11 17:23:13;;;;;;;53.22;27.83;;;;;;;1.54;100.00;100086.53;10487748;28;20051;-61
2022/01/11 17:28:19;;;;;;;55.60;29.38;;;;;;;1.57;100.00;100087.34;10478893;28;20045;-61
2022/01/11 17:33:22;;;;;;;60.47;30.35;;;;;;;1.55;100.00;100092.69;10484187;28;20048;-63
2022/01/11 17:38:25;;;;;;;50.53;28.02;;;;;;;1.58;100.00;100099.69;10487864;28;20058;-59
2022/01/11 17:43:30;;;;;;;56.03;28.80;;;;;;;1.60;100.00;100098.69;10524349;28;20074;-63
2022/01/11 17:48:35;;;;;;;56.03;30.02;;;;;;;1.57;100.00;100100.63;10526510;28;20048;-58
2022/01/11 17:53:41;;;;;;;52.70;29.38;;;;;;;1.57;100.00;100101.47;10516269;28;20127;-63
2022/01/11 17:59:01;;;;;;;52.28;28.65;;;;;;;1.53;100.00;100110.50;10522966;28;20103;-61
2022/01/11 18:04:11;;;;;;;54.75;28.40;;;;;;;1.54;100.00;100113.09;10511035;28;20044;-61
2022/01/11 18:09:14;;;;;;;51.35;26.85;;;;;;;1.49;100.00;100117.72;10553308;28;20880;-60
2022/01/11 18:14:20;;;;;;;48.42;25.67;;;;;;;1.37;100.00;100119.09;10542634;28;21399;-60
2022/01/11 18:19:23;;;;;;;45.15;25.77;;;;;;;1.44;100.00;100126.81;10538969;28;20059;-61
2022/01/11 18:24:29;;;;;;;46.75;24.92;;;;;;;1.35;100.00;100128.91;10521578;28;20098;-61
2022/01/11 18:29:35;;;;;;;47.63;26.52;;;;;;;1.20;100.00;100143.66;10500771;28;20411;-61
2022/01/11 18:34:42;;;;;;;45.28;25.60;;;;;;;1.26;100.00;100145.19;10510821;28;20407;-59
2022/01/11 18:39:47;;;;;;;48.28;26.77;;;;;;;1.25;100.00;100143.47;10529210;22;20076;-59
2022/01/11 18:44:52;;;;;;;43.65;25.33;;;;;;;1.30;100.00;100137.97;10449704;28;20087;-61
2022/01/11 18:49:55;;;;;;;48.25;26.58;;;;;;;1.32;100.00;100134.31;10461278;28;20047;-53
2022/01/11 18:55:03;;;;;;;46.78;26.85;;;;;;;1.35;100.00;100133.38;10451706;28;20755;-59
2022/01/11 19:00:10;;;;;;;49.97;27.90;;;;;;;1.37;100.00;100132.38;10453959;28;20121;-60
2022/01/11 19:05:13;;;;;;;51.17;27.33;;;;;;;1.40;100.00;100135.84;10455082;28;20047;-59
2022/01/11 19:10:18;;;;;;;50.13;28.35;;;;;;;1.42;100.00;100145.47;10448547;28;20095;-57
2022/01/11 19:15:24;;;;;;;51.10;28.17;;;;;;;1.44;100.00;100148.94;10451843;28;20036;-56
2022/01/11 19:20:27;;;;;;;49.58;27.30;;;;;;;1.45;100.00;100153.31;10448462;28;20040;-54
2022/01/11 19:25:30;;;;;;;54.00;28.38;;;;;;;1.44;100.00;100150.72;10450198;28;20042;-57
2022/01/11 19:30:35;;;;;;;48.72;28.20;;;;;;;1.44;100.00;100156.91;10457106;28;20320;-55
2022/01/11 19:35:40;;;;;;;49.95;27.23;;;;;;;1.44;100.00;100164.88;10457253;28;20044;-57
2022/01/11 19:41:04;;;;;;;51.33;28.02;;;;;;;1.42;100.00;100160.53;10464612;28;20489;-57
2022/01/11 19:46:09;;;;;;;50.72;27.55;;;;;;;1.43;100.00;100168.44;10476342;28;20051;-55
2022/01/11 19:51:12;;;;;;;49.70;28.45;;;;;;;1.39;100.00;100166.81;10468724;28;20091;-60
2022/01/11 19:56:15;;;;;;;49.83;28.50;;;;;;;1.37;100.00;100169.56;10471427;28;20084;-59
2022/01/11 20:01:20;;;;;;;46.42;26.75;;;;;;;1.35;100.00;100165.22;10474917;28;20075;-55
2022/01/11 20:06:23;;;;;;;49.75;27.52;;;;;;;1.38;100.00;100159.78;10474437;28;20163;-53
2022/01/11 20:11:27;;;;;;;48.78;27.10;;;;;;;1.35;100.00;100170.53;10469477;28;20040;-55
2022/01/11 20:16:32;;;;;;;40.75;24.45;;;;;;;1.34;100.00;100160.84;10453972;28;20048;-60
2022/01/11 20:21:49;;;;;;;34.53;20.17;;;;;;;1.27;100.00;100149.59;10474230;28;20757;-55
2022/01/11 20:32:15;;;;;;;42.83;24.33;;;;;;;1.26;100.00;100158.47;10474868;28;20045;-53
2022/01/11 20:37:19;;;;;;;36.95;22.63;;;;;;;1.30;100.00;100156.56;10474067;28;20040;-56
2022/01/11 20:42:24;;;;;;;30.10;18.02;;;;;;;1.27;100.00;100161.97;10474822;28;20083;-56
2022/01/11 20:47:32;;;;;;;33.75;19.92;;;;;;;1.28;100.00;100164.59;10472825;28;20157;-53
2022/01/11 20:52:47;;;;;;;31.90;18.52;;;;;;;1.27;100.00;100170.84;10470495;28;20048;-55
2022/01/11 20:57:53;;;;;;;30.95;20.05;;;;;;;1.26;100.00;100178.84;10464737;28;20139;-53
2022/01/11 21:02:59;;;;;;;35.40;21.35;;;;;;;1.26;100.00;100178.84;10459862;28;20312;-57
2022/01/11 21:08:03;;;;;;;40.05;23.55;;;;;;;1.25;100.00;100174.44;10455329;28;20126;-54
2022/01/11 21:13:07;;;;;;;43.33;25.33;;;;;;;1.24;100.00;100176.25;10471119;28;20507;-57
2022/01/11 21:23:37;;;;;;;39.03;23.58;;;;;;;1.19;100.00;100184.41;10457510;28;20147;-53
2022/01/11 21:28:41;;;;;;;44.15;24.98;;;;;;;1.16;100.00;100186.31;10464921;28;20052;-56
2022/01/11 21:33:46;;;;;;;44.03;25.75;;;;;;;1.08;100.00;100179.47;10466319;28;20044;-55
2022/01/11 21:38:49;;;;;;;42.47;24.83;;;;;;;1.01;100.00;100182.41;10466225;28;20504;-54
2022/01/11 21:43:53;;;;;;;41.92;25.25;;;;;;;0.93;100.00;100190.69;10489867;28;20393;-55
2022/01/11 21:48:58;;;;;;;44.38;25.95;;;;;;;0.83;100.00;100181.31;10491653;28;20047;-55
2022/01/11 21:54:01;;;;;;;42.55;25.52;;;;;;;0.74;100.00;100178.06;10492101;28;20249;-54
2022/01/11 21:59:05;;;;;;;42.53;25.25;;;;;;;0.64;100.00;100184.63;10497968;28;20135;-54
2022/01/11 22:04:10;;;;;;;46.58;25.88;;;;;;;0.59;100.00;100186.56;10501096;28;20046;-54
2022/01/11 22:09:15;;;;;;;45.92;26.38;;;;;;;0.55;100.00;100191.13;10499821;28;20441;-58
2022/01/11 22:14:30;;;;;;;46.55;26.75;;;;;;;0.51;100.00;100194.81;10497721;28;20426;-58
2022/01/11 22:19:35;;;;;;;45.28;26.42;;;;;;;0.52;100.00;100190.38;10496724;28;20070;-55
2022/01/11 22:24:38;;;;;;;46.47;26.42;;;;;;;0.50;100.00;100190.44;10498010;28;20047;-56
2022/01/11 22:29:46;;;;;;;47.33;26.88;;;;;;;0.51;100.00;100188.63;10485922;28;20041;-60
2022/01/11 22:34:50;;;;;;;48.25;28.23;;;;;;;0.50;100.00;100179.81;10504587;28;20067;-60
2022/01/11 22:39:53;;;;;;;48.33;26.80;;;;;;;0.51;100.00;100188.63;10483350;28;20062;-60
2022/01/11 22:44:57;;;;;;;43.83;25.25;;;;;;;0.49;100.00;100185.16;10519177;28;20129;-60
2022/01/11 22:50:02;;;;;;;47.97;25.15;;;;;;;0.46;100.00;100186.13;10507362;28;20142;-59
2022/01/11 22:55:07;;;;;;;43.63;24.92;;;;;;;0.44;100.00;100185.31;10516396;28;20046;-58
2022/01/11 23:00:15;;;;;;;44.13;25.10;;;;;;;0.41;100.00;100183.66;10507085;28;20079;-56
2022/01/11 23:05:20;;;;;;;44.08;25.50;;;;;;;0.37;100.00;100178.50;10509694;28;20051;-57
2022/01/11 23:10:25;;;;;;;47.50;25.88;;;;;;;0.33;100.00;100174.22;10507151;28;20139;-55
2022/01/11 23:15:30;;;;;;;44.47;24.88;;;;;;;0.25;100.00;100177.13;10507291;28;20494;-58